Angola, Indiana
Current Conditions -  °F | °C
As of 7:35 PM on Sunday 25 Jan 2015 (Local Time) from KANQ Reporting Station
Overcast Overcast  
Wind Chill:   Ceiling: 1600
Heat Index: 21°   Visibility: 6mi
Dew Point: 18°   Wind: 12mph
Humidity: 86%   Direction: 70°ENE
Pressure: 29.88"   Gusts: NA
Location:  41.63°N, 85°W
Report Text: KANQ 260035Z AUTO 07010KT 6SM OVC016 M06/M08 A2988 RMK
Loading
Personal Weather Stations






























Interactive Weather Map New forecast layout! Learn more

10-Day Weather Forecast

Advertisements
Track Severe Weather on mobile